createdAt,value
2023-02-28T00:00:04.000Z,96718
2023-02-28T00:05:04.000Z,96719
2023-02-28T00:10:04.000Z,96718
2023-02-28T00:15:04.000Z,96717
2023-02-28T00:20:04.000Z,96711
2023-02-28T00:25:04.000Z,96726
2023-02-28T00:30:04.000Z,96719
2023-02-28T00:35:04.000Z,96723
2023-02-28T00:40:04.000Z,96712
2023-02-28T00:45:04.000Z,96710
2023-02-28T00:50:04.000Z,96711
2023-02-28T00:55:04.000Z,96714
2023-02-28T01:00:04.000Z,96705
2023-02-28T01:05:04.000Z,96708
2023-02-28T01:10:04.000Z,96702
2023-02-28T01:15:04.000Z,96703
2023-02-28T01:20:04.000Z,96708
2023-02-28T01:25:04.000Z,96703
2023-02-28T01:30:04.000Z,96696
2023-02-28T01:35:04.000Z,96705
2023-02-28T01:40:04.000Z,96706
2023-02-28T01:45:04.000Z,96698
2023-02-28T01:50:04.000Z,96696
2023-02-28T01:55:04.000Z,96697
2023-02-28T02:00:04.000Z,96688
2023-02-28T02:05:04.000Z,96684
2023-02-28T02:10:04.000Z,96689
2023-02-28T02:15:04.000Z,96686
2023-02-28T02:20:04.000Z,96679
2023-02-28T02:25:04.000Z,96675
2023-02-28T02:30:04.000Z,96681
2023-02-28T02:35:04.000Z,96681
2023-02-28T02:40:04.000Z,96668
2023-02-28T02:45:04.000Z,96673
2023-02-28T02:50:04.000Z,96672
2023-02-28T02:55:04.000Z,96674
2023-02-28T03:00:04.000Z,96670
2023-02-28T03:05:04.000Z,96680
2023-02-28T03:10:04.000Z,96677
2023-02-28T03:15:04.000Z,96667
2023-02-28T03:20:04.000Z,96659
2023-02-28T03:25:04.000Z,96656
2023-02-28T03:30:04.000Z,96664
2023-02-28T03:35:04.000Z,96654
2023-02-28T03:40:04.000Z,96659
2023-02-28T03:45:04.000Z,96660
2023-02-28T03:50:04.000Z,96667
2023-02-28T03:55:04.000Z,96663
2023-02-28T04:00:04.000Z,96670
2023-02-28T04:05:04.000Z,96680
2023-02-28T04:10:04.000Z,96678
2023-02-28T04:15:04.000Z,96680
2023-02-28T04:20:04.000Z,96679
2023-02-28T04:25:04.000Z,96693
2023-02-28T04:30:04.000Z,96697
2023-02-28T04:35:04.000Z,96704
2023-02-28T04:40:04.000Z,96699
2023-02-28T04:45:04.000Z,96701
2023-02-28T04:50:04.000Z,96702
2023-02-28T04:55:04.000Z,96703
2023-02-28T05:00:04.000Z,96710
2023-02-28T05:05:04.000Z,96720
2023-02-28T05:10:04.000Z,96708
2023-02-28T05:15:04.000Z,96710
2023-02-28T05:20:04.000Z,96702
2023-02-28T05:25:04.000Z,96713
2023-02-28T05:30:04.000Z,96709
2023-02-28T05:35:04.000Z,96714
2023-02-28T05:40:04.000Z,96718
2023-02-28T05:45:04.000Z,96722
2023-02-28T05:50:04.000Z,96710
2023-02-28T05:55:04.000Z,96715
2023-02-28T06:00:04.000Z,96708
2023-02-28T06:05:04.000Z,96721
2023-02-28T06:10:04.000Z,96711
2023-02-28T06:15:04.000Z,96710
2023-02-28T06:20:04.000Z,96728
2023-02-28T06:25:04.000Z,96734
2023-02-28T06:30:04.000Z,96733
2023-02-28T06:35:04.000Z,96746
2023-02-28T06:40:04.000Z,96746
2023-02-28T06:45:04.000Z,96751
2023-02-28T06:50:04.000Z,96750
2023-02-28T06:55:04.000Z,96761
2023-02-28T07:00:04.000Z,96759
2023-02-28T07:05:04.000Z,96760
2023-02-28T07:10:04.000Z,96764
2023-02-28T07:15:04.000Z,96751
2023-02-28T07:20:04.000Z,96750
2023-02-28T07:25:04.000Z,96751
2023-02-28T07:30:04.000Z,96762
2023-02-28T07:35:04.000Z,96759
2023-02-28T07:40:04.000Z,96778
2023-02-28T07:45:04.000Z,96785
2023-02-28T07:50:04.000Z,96791
2023-02-28T07:55:04.000Z,96786
2023-02-28T08:00:04.000Z,96778
2023-02-28T08:05:04.000Z,96781
2023-02-28T08:10:04.000Z,96787
2023-02-28T08:15:04.000Z,96780
2023-02-28T08:20:04.000Z,96785
2023-02-28T08:25:04.000Z,96790
2023-02-28T08:30:04.000Z,96788
2023-02-28T08:35:04.000Z,96796
2023-02-28T08:40:04.000Z,96803
2023-02-28T08:45:04.000Z,96803
2023-02-28T08:50:04.000Z,96815
2023-02-28T08:55:04.000Z,96807
2023-02-28T09:00:04.000Z,96800
2023-02-28T09:05:04.000Z,96801
2023-02-28T09:10:04.000Z,96806
2023-02-28T09:15:04.000Z,96804
2023-02-28T09:20:04.000Z,96814
2023-02-28T09:25:04.000Z,96813
2023-02-28T09:30:04.000Z,96818
2023-02-28T09:35:04.000Z,96825
2023-02-28T09:40:04.000Z,96832
2023-02-28T09:45:04.000Z,96830
2023-02-28T09:50:04.000Z,96826
2023-02-28T09:55:04.000Z,96829
2023-02-28T10:00:04.000Z,96837
2023-02-28T10:05:04.000Z,96843
2023-02-28T10:10:04.000Z,96848
2023-02-28T10:15:04.000Z,96853
2023-02-28T10:20:04.000Z,96856
2023-02-28T10:25:04.000Z,96850
2023-02-28T10:30:04.000Z,96843
2023-02-28T10:35:04.000Z,96849
2023-02-28T10:40:04.000Z,96839
2023-02-28T10:45:04.000Z,96853
2023-02-28T10:50:04.000Z,96846
2023-02-28T10:55:04.000Z,96846
2023-02-28T11:00:04.000Z,96858
2023-02-28T11:05:04.000Z,96856
2023-02-28T11:10:04.000Z,96852
2023-02-28T11:15:04.000Z,96850
2023-02-28T11:20:04.000Z,96848
2023-02-28T11:25:04.000Z,96851
2023-02-28T11:30:04.000Z,96844
2023-02-28T11:35:04.000Z,96848
2023-02-28T11:40:04.000Z,96852
2023-02-28T11:45:04.000Z,96854
2023-02-28T11:50:04.000Z,96848
2023-02-28T11:55:04.000Z,96858
2023-02-28T12:00:04.000Z,96850
2023-02-28T12:05:04.000Z,96847
2023-02-28T12:10:04.000Z,96846
2023-02-28T12:15:04.000Z,96846
2023-02-28T12:20:04.000Z,96849
2023-02-28T12:25:04.000Z,96848
2023-02-28T12:30:04.000Z,96838
2023-02-28T12:35:04.000Z,96840
2023-02-28T12:40:04.000Z,96839
2023-02-28T12:45:04.000Z,96830
2023-02-28T12:50:04.000Z,96832
2023-02-28T12:55:04.000Z,96844
2023-02-28T13:00:04.000Z,96844
2023-02-28T13:05:04.000Z,96843
2023-02-28T13:10:04.000Z,96837
2023-02-28T13:15:04.000Z,96846
2023-02-28T13:20:04.000Z,96841
2023-02-28T13:25:04.000Z,96837
2023-02-28T13:30:04.000Z,96837
2023-02-28T13:35:04.000Z,96844
2023-02-28T13:40:04.000Z,96847
2023-02-28T13:45:04.000Z,96854
2023-02-28T13:50:04.000Z,96872
2023-02-28T13:55:04.000Z,96863
2023-02-28T14:00:04.000Z,96870
2023-02-28T14:05:04.000Z,96873
2023-02-28T14:10:04.000Z,96878
2023-02-28T14:15:05.000Z,96878
2023-02-28T14:20:05.000Z,96876
2023-02-28T14:25:05.000Z,96895
2023-02-28T14:30:05.000Z,96901
2023-02-28T14:35:05.000Z,96898
2023-02-28T14:40:05.000Z,96892
2023-02-28T14:45:05.000Z,96891
2023-02-28T14:50:05.000Z,96892
2023-02-28T14:55:05.000Z,96890
2023-02-28T15:00:05.000Z,96898
2023-02-28T15:05:05.000Z,96900
2023-02-28T15:10:05.000Z,96908
2023-02-28T15:15:05.000Z,96901
2023-02-28T15:20:05.000Z,96907
2023-02-28T15:25:05.000Z,96904
2023-02-28T15:30:05.000Z,96904
2023-02-28T15:35:05.000Z,96906
2023-02-28T15:40:05.000Z,96904
2023-02-28T15:45:05.000Z,96904
2023-02-28T15:50:05.000Z,96908
2023-02-28T15:55:05.000Z,96916
2023-02-28T16:00:05.000Z,96914
2023-02-28T16:05:05.000Z,96933
2023-02-28T16:10:05.000Z,96932
2023-02-28T16:15:05.000Z,96941
2023-02-28T16:20:05.000Z,96937
2023-02-28T16:25:05.000Z,96950
2023-02-28T16:30:05.000Z,96956
2023-02-28T16:35:05.000Z,96961
2023-02-28T16:40:05.000Z,96964
2023-02-28T16:45:05.000Z,96960
2023-02-28T16:50:05.000Z,96965
2023-02-28T16:55:05.000Z,96977
2023-02-28T17:00:05.000Z,96978
2023-02-28T17:05:05.000Z,96981
2023-02-28T17:10:05.000Z,96979
2023-02-28T17:15:05.000Z,96978
2023-02-28T17:20:05.000Z,96987
2023-02-28T17:25:05.000Z,97003
2023-02-28T17:30:05.000Z,96997
2023-02-28T17:35:05.000Z,97008
2023-02-28T17:40:05.000Z,97002
2023-02-28T17:45:05.000Z,96997
2023-02-28T17:50:05.000Z,97005
2023-02-28T17:55:05.000Z,97005
2023-02-28T18:00:05.000Z,97007
2023-02-28T18:05:05.000Z,97007
2023-02-28T18:10:05.000Z,97004
2023-02-28T18:15:05.000Z,97005
2023-02-28T18:20:05.000Z,97000
2023-02-28T18:25:05.000Z,96998
2023-02-28T18:30:05.000Z,96986
2023-02-28T18:35:05.000Z,96979
2023-02-28T18:40:05.000Z,96985
2023-02-28T18:45:05.000Z,96978
2023-02-28T18:50:05.000Z,96981
2023-02-28T18:55:05.000Z,96992
2023-02-28T19:00:05.000Z,96983
2023-02-28T19:05:05.000Z,96980
2023-02-28T19:10:05.000Z,96983
2023-02-28T19:15:05.000Z,96977
2023-02-28T19:20:05.000Z,96981
2023-02-28T19:25:05.000Z,96974
2023-02-28T19:30:05.000Z,96974
2023-02-28T19:35:05.000Z,96970
2023-02-28T19:40:05.000Z,96981
2023-02-28T19:45:05.000Z,96971
2023-02-28T19:50:05.000Z,96974
2023-02-28T19:55:05.000Z,96974
2023-02-28T20:00:05.000Z,96965
2023-02-28T20:05:05.000Z,96962
2023-02-28T20:10:05.000Z,96966
2023-02-28T20:15:05.000Z,96957
2023-02-28T20:20:05.000Z,96962
2023-02-28T20:25:05.000Z,96960
2023-02-28T20:30:05.000Z,96959
2023-02-28T20:35:05.000Z,96964
2023-02-28T20:40:05.000Z,96954
2023-02-28T20:45:05.000Z,96951
2023-02-28T20:50:05.000Z,96949
2023-02-28T20:55:05.000Z,96954
2023-02-28T21:00:05.000Z,96955
2023-02-28T21:05:05.000Z,96954
2023-02-28T21:10:05.000Z,96955
2023-02-28T21:15:05.000Z,96955
2023-02-28T21:20:05.000Z,96955
2023-02-28T21:25:05.000Z,96943
2023-02-28T21:30:05.000Z,96944
2023-02-28T21:35:05.000Z,96938
2023-02-28T21:40:05.000Z,96945
2023-02-28T21:45:05.000Z,96945
2023-02-28T21:50:05.000Z,96936
2023-02-28T21:55:05.000Z,96945
2023-02-28T22:00:05.000Z,96933
2023-02-28T22:05:05.000Z,96930
2023-02-28T22:10:05.000Z,96943
2023-02-28T22:15:05.000Z,96938
2023-02-28T22:20:05.000Z,96930
2023-02-28T22:25:05.000Z,96930
2023-02-28T22:30:05.000Z,96927
2023-02-28T22:35:05.000Z,96924
2023-02-28T22:40:05.000Z,96922
2023-02-28T22:45:05.000Z,96920
2023-02-28T22:50:05.000Z,96927
2023-02-28T22:55:05.000Z,96921
2023-02-28T23:00:05.000Z,96926
2023-02-28T23:05:05.000Z,96920
2023-02-28T23:10:05.000Z,96921
2023-02-28T23:15:05.000Z,96932
2023-02-28T23:20:05.000Z,96931
2023-02-28T23:25:05.000Z,96925
2023-02-28T23:30:05.000Z,96920
2023-02-28T23:35:05.000Z,96924
2023-02-28T23:40:05.000Z,96920
2023-02-28T23:45:05.000Z,96920
2023-02-28T23:50:05.000Z,96921
2023-02-28T23:55:05.000Z,96914
